createdAt,value
2023-06-30T00:02:04.873Z,99518.00
2023-06-30T00:04:34.245Z,99514.19
2023-06-30T00:07:02.307Z,99522.63
2023-06-30T00:09:30.316Z,99522.56
2023-06-30T00:11:58.272Z,99516.94
2023-06-30T00:14:26.199Z,99517.88
2023-06-30T00:16:58.068Z,99521.22
2023-06-30T00:19:27.265Z,99513.53
2023-06-30T00:21:55.888Z,99515.81
2023-06-30T00:24:24.819Z,99516.19
2023-06-30T00:26:52.647Z,99524.16
2023-06-30T00:29:20.913Z,99513.53
2023-06-30T00:31:48.837Z,99511.16
2023-06-30T00:34:16.781Z,99515.81
2023-06-30T00:36:47.674Z,99516.28
2023-06-30T00:39:15.441Z,99517.25
2023-06-30T00:41:43.342Z,99517.72
2023-06-30T00:44:11.107Z,99518.59
2023-06-30T00:46:39.059Z,99527.56
2023-06-30T00:49:07.328Z,99531.47
2023-06-30T00:51:35.054Z,99531.69
2023-06-30T00:54:02.942Z,99526.28
2023-06-30T00:56:30.789Z,99529.09
2023-06-30T00:58:59.219Z,99525.88
2023-06-30T01:01:49.200Z,99523.16
2023-06-30T01:05:01.557Z,99528.94
2023-06-30T01:07:39.734Z,99523.09
2023-06-30T01:10:29.713Z,99517.44
2023-06-30T01:13:00.076Z,99524.00
2023-06-30T01:15:28.356Z,99523.31
2023-06-30T01:18:01.146Z,99529.78
2023-06-30T01:20:35.843Z,99527.13
2023-06-30T01:23:18.963Z,99518.91
2023-06-30T01:25:49.741Z,99517.78
2023-06-30T01:28:18.583Z,99521.63
2023-06-30T01:30:46.799Z,99518.03
2023-06-30T01:33:15.353Z,99522.78
2023-06-30T01:35:43.296Z,99516.78
2023-06-30T01:38:11.234Z,99530.31
2023-06-30T01:40:39.203Z,99522.38
2023-06-30T01:43:07.314Z,99525.03
2023-06-30T01:45:36.354Z,99522.28
2023-06-30T01:48:04.523Z,99515.22
2023-06-30T01:50:34.190Z,99518.63
2023-06-30T01:53:02.153Z,99511.66
2023-06-30T01:55:30.118Z,99508.03
2023-06-30T01:57:58.076Z,99505.69
2023-06-30T02:00:26.002Z,99511.47
2023-06-30T02:02:54.734Z,99507.97
2023-06-30T02:05:22.795Z,99510.53
2023-06-30T02:07:51.399Z,99509.25
2023-06-30T02:10:19.755Z,99521.97
2023-06-30T02:12:47.770Z,99520.28
2023-06-30T02:15:15.683Z,99518.56
2023-06-30T02:17:43.670Z,99519.50
2023-06-30T02:20:14.100Z,99510.47
2023-06-30T02:22:41.942Z,99511.66
2023-06-30T02:25:09.913Z,99510.19
2023-06-30T02:27:37.780Z,99508.50
2023-06-30T02:30:07.017Z,99514.28
2023-06-30T02:32:39.824Z,99515.00
2023-06-30T02:35:11.490Z,99515.22
2023-06-30T02:37:39.469Z,99519.69
2023-06-30T02:40:08.815Z,99513.94
2023-06-30T02:42:36.738Z,99523.94
2023-06-30T02:45:06.347Z,99525.97
2023-06-30T02:47:34.386Z,99521.28
2023-06-30T02:50:02.678Z,99522.13
2023-06-30T02:52:33.305Z,99521.53
2023-06-30T02:55:01.291Z,99516.94
2023-06-30T02:57:29.142Z,99520.63
2023-06-30T02:59:57.766Z,99525.50
2023-06-30T03:02:26.063Z,99525.03
2023-06-30T03:04:57.187Z,99528.22
2023-06-30T03:07:26.876Z,99524.28
2023-06-30T03:09:54.936Z,99528.63
2023-06-30T03:12:23.299Z,99510.53
2023-06-30T03:14:51.472Z,99521.38
2023-06-30T03:17:19.536Z,99520.44
2023-06-30T03:19:48.065Z,99525.03
2023-06-30T03:22:16.188Z,99530.38
2023-06-30T03:24:44.209Z,99531.78
2023-06-30T03:27:12.255Z,99525.56
2023-06-30T03:29:40.436Z,99528.97
2023-06-30T03:32:08.914Z,99518.06
2023-06-30T03:34:36.786Z,99521.72
2023-06-30T03:37:05.121Z,99531.38
2023-06-30T03:39:32.976Z,99524.69
2023-06-30T03:42:01.166Z,99526.16
2023-06-30T03:44:29.052Z,99529.31
2023-06-30T03:46:59.521Z,99525.56
2023-06-30T03:49:28.064Z,99525.56
2023-06-30T03:51:55.916Z,99529.56
2023-06-30T03:54:23.838Z,99528.88
2023-06-30T03:56:52.416Z,99530.94
2023-06-30T03:59:20.335Z,99532.47
2023-06-30T04:01:48.304Z,99526.59
2023-06-30T04:04:16.437Z,99531.88
2023-06-30T04:06:45.980Z,99535.63
2023-06-30T04:09:14.044Z,99534.09
2023-06-30T04:11:41.926Z,99531.50
2023-06-30T04:14:10.092Z,99531.34
2023-06-30T04:16:37.907Z,99526.75
2023-06-30T04:19:05.866Z,99539.06
2023-06-30T04:21:33.830Z,99535.22
2023-06-30T04:24:01.867Z,99538.34
2023-06-30T04:26:29.872Z,99536.47
2023-06-30T04:28:57.781Z,99540.47
2023-06-30T04:31:28.297Z,99539.81
2023-06-30T04:33:56.486Z,99547.97
2023-06-30T04:36:24.444Z,99547.69
2023-06-30T04:38:52.424Z,99546.56
2023-06-30T04:41:20.483Z,99549.88
2023-06-30T04:43:48.414Z,99558.66
2023-06-30T04:46:17.372Z,99554.28
2023-06-30T04:48:45.313Z,99551.91
2023-06-30T04:51:14.765Z,99554.06
2023-06-30T04:53:43.354Z,99562.84
2023-06-30T04:56:11.261Z,99554.47
2023-06-30T04:58:40.095Z,99556.13
2023-06-30T05:01:08.035Z,99553.22
2023-06-30T05:03:36.123Z,99560.78
2023-06-30T05:06:04.138Z,99560.25
2023-06-30T05:08:31.911Z,99563.97
2023-06-30T05:10:59.777Z,99557.38
2023-06-30T05:13:28.414Z,99560.63
2023-06-30T05:15:56.489Z,99565.53
2023-06-30T05:18:24.768Z,99565.47
2023-06-30T05:20:52.866Z,99562.41
2023-06-30T05:23:21.345Z,99565.56
2023-06-30T05:25:49.066Z,99563.03
2023-06-30T05:28:17.307Z,99563.56
2023-06-30T05:30:45.086Z,99563.66
2023-06-30T05:33:13.013Z,99565.19
2023-06-30T05:35:40.910Z,99563.00
2023-06-30T05:38:08.890Z,99569.09
2023-06-30T05:40:36.802Z,99574.97
2023-06-30T05:43:04.813Z,99571.56
2023-06-30T05:45:32.579Z,99574.06
2023-06-30T05:48:00.490Z,99569.94
2023-06-30T05:50:31.287Z,99578.09
2023-06-30T05:52:59.265Z,99569.72
2023-06-30T05:55:27.054Z,99573.78
2023-06-30T05:57:54.924Z,99568.50
2023-06-30T06:00:25.771Z,99576.44
2023-06-30T06:02:53.725Z,99578.75
2023-06-30T06:05:22.109Z,99575.47
2023-06-30T06:07:50.718Z,99575.91
2023-06-30T06:10:18.600Z,99576.81
2023-06-30T06:12:46.499Z,99581.88
2023-06-30T06:15:14.550Z,99580.50
2023-06-30T06:17:42.462Z,99586.28
2023-06-30T06:20:11.025Z,99585.28
2023-06-30T06:22:38.847Z,99587.91
2023-06-30T06:25:08.551Z,99577.69
2023-06-30T06:27:37.279Z,99580.13
2023-06-30T06:30:06.943Z,99571.78
2023-06-30T06:32:34.874Z,99568.00
2023-06-30T06:35:02.828Z,99573.34
2023-06-30T06:37:30.686Z,99575.28
2023-06-30T06:39:58.479Z,99572.97
2023-06-30T06:42:26.314Z,99568.78
2023-06-30T06:44:54.431Z,99570.69
2023-06-30T06:48:17.828Z,99576.81
2023-06-30T06:50:46.275Z,99566.84
2023-06-30T06:53:25.894Z,99578.28
2023-06-30T06:55:56.595Z,99569.13
2023-06-30T06:58:29.286Z,99567.88
2023-06-30T07:00:57.602Z,99573.63
2023-06-30T07:03:25.908Z,99571.31
2023-06-30T07:05:53.846Z,99566.94
2023-06-30T07:08:22.006Z,99565.22
2023-06-30T07:10:51.673Z,99571.81
2023-06-30T07:13:22.287Z,99568.25
2023-06-30T07:15:51.786Z,99559.09
2023-06-30T07:18:21.083Z,99562.50
2023-06-30T07:20:50.448Z,99557.22
2023-06-30T07:23:18.966Z,99563.66
2023-06-30T07:25:47.750Z,99560.78
2023-06-30T07:28:16.652Z,99560.66
2023-06-30T07:30:44.961Z,99565.25
2023-06-30T07:33:13.773Z,99563.66
2023-06-30T07:35:42.136Z,99562.22
2023-06-30T07:38:09.951Z,99552.19
2023-06-30T07:40:54.085Z,99559.41
2023-06-30T07:43:24.645Z,99562.00
2023-06-30T07:45:52.761Z,99564.47
2023-06-30T07:48:20.769Z,99562.00
2023-06-30T07:51:03.243Z,99567.78
2023-06-30T07:53:36.654Z,99564.94
2023-06-30T07:56:06.961Z,99564.44
2023-06-30T07:58:34.911Z,99561.94
2023-06-30T08:01:02.921Z,99562.09
2023-06-30T08:03:31.152Z,99564.75
2023-06-30T08:06:00.358Z,99562.94
2023-06-30T08:08:28.860Z,99555.41
2023-06-30T08:10:57.817Z,99552.47
2023-06-30T08:13:26.997Z,99553.25
2023-06-30T08:15:55.297Z,99557.28
2023-06-30T08:18:31.569Z,99543.81
2023-06-30T08:21:01.233Z,99555.94
2023-06-30T08:23:29.096Z,99549.69
2023-06-30T08:25:57.067Z,99547.63
2023-06-30T08:28:24.926Z,99545.19
2023-06-30T08:30:53.961Z,99541.19
2023-06-30T08:33:39.751Z,99538.75
2023-06-30T08:36:08.976Z,99532.50
2023-06-30T08:38:36.949Z,99538.00
2023-06-30T08:41:05.083Z,99538.88
2023-06-30T08:43:34.251Z,99531.06
2023-06-30T08:46:03.080Z,99527.31
2023-06-30T08:48:32.687Z,99523.81
2023-06-30T08:51:01.531Z,99527.47
2023-06-30T08:53:31.533Z,99521.28
2023-06-30T08:56:01.177Z,99518.66
2023-06-30T08:58:29.839Z,99522.03
2023-06-30T09:00:58.358Z,99520.50
2023-06-30T09:03:28.938Z,99518.66
2023-06-30T09:05:59.907Z,99517.41
2023-06-30T09:08:54.296Z,99511.28
2023-06-30T09:11:25.743Z,99507.09
2023-06-30T09:13:55.406Z,99504.13
2023-06-30T09:16:23.516Z,99504.53
2023-06-30T09:18:51.699Z,99509.28
2023-06-30T09:21:21.607Z,99503.13
2023-06-30T09:23:52.762Z,99498.69
2023-06-30T09:26:20.983Z,99496.00
2023-06-30T09:28:49.507Z,99488.31
2023-06-30T09:31:19.840Z,99482.78
2023-06-30T09:33:49.199Z,99483.38
2023-06-30T09:36:20.219Z,99483.22
2023-06-30T09:38:48.188Z,99476.72
2023-06-30T09:41:23.199Z,99475.94
2023-06-30T09:43:59.145Z,99468.50
2023-06-30T09:46:29.808Z,99471.47
2023-06-30T09:48:59.759Z,99460.03
2023-06-30T09:51:27.928Z,99461.72
2023-06-30T09:53:56.158Z,99455.03
2023-06-30T09:56:28.318Z,99455.03
2023-06-30T09:58:59.117Z,99451.00
2023-06-30T10:01:27.621Z,99447.75
2023-06-30T10:03:56.477Z,99446.09
2023-06-30T10:06:26.453Z,99439.16
2023-06-30T10:08:58.906Z,99437.84
2023-06-30T10:11:30.651Z,99442.69
2023-06-30T10:14:03.692Z,99439.13
2023-06-30T10:16:33.713Z,99437.00
2023-06-30T10:19:04.082Z,99433.97
2023-06-30T10:21:32.300Z,99431.38
2023-06-30T10:24:14.613Z,99429.13
2023-06-30T10:26:43.138Z,99431.84
2023-06-30T10:29:11.610Z,99427.44
2023-06-30T10:31:43.593Z,99423.91
2023-06-30T10:34:12.316Z,99418.91
2023-06-30T10:36:42.522Z,99412.25
2023-06-30T10:39:13.106Z,99415.31
2023-06-30T10:41:51.915Z,99412.25
2023-06-30T10:44:21.823Z,99407.28
2023-06-30T10:46:49.746Z,99405.69
2023-06-30T10:49:31.088Z,99400.22
2023-06-30T10:52:03.470Z,99397.56
2023-06-30T10:54:43.380Z,99395.25
2023-06-30T10:57:27.086Z,99395.91
2023-06-30T11:00:15.919Z,99390.13
2023-06-30T11:03:00.844Z,99377.94
2023-06-30T11:05:34.507Z,99377.50
2023-06-30T11:08:11.136Z,99380.63
2023-06-30T11:10:48.800Z,99378.88
2023-06-30T11:13:16.917Z,99369.19
2023-06-30T11:15:45.768Z,99364.72
2023-06-30T11:18:25.002Z,99358.47
2023-06-30T11:21:00.964Z,99358.97
2023-06-30T11:23:40.115Z,99355.81
2023-06-30T11:26:18.595Z,99347.38
2023-06-30T11:28:52.094Z,99349.91
2023-06-30T11:31:20.386Z,99349.63
2023-06-30T11:33:48.864Z,99341.31
2023-06-30T11:36:19.898Z,99344.44
2023-06-30T11:38:52.119Z,99337.50
2023-06-30T11:41:21.986Z,99337.44
2023-06-30T11:43:55.719Z,99327.34
2023-06-30T11:46:26.725Z,99320.84
2023-06-30T11:48:54.729Z,99322.91
2023-06-30T11:51:22.690Z,99327.53
2023-06-30T11:53:51.085Z,99320.94
2023-06-30T11:56:22.632Z,99323.94
2023-06-30T11:58:54.787Z,99321.91
2023-06-30T12:01:23.002Z,99313.88
2023-06-30T12:04:08.118Z,99302.44
2023-06-30T12:06:37.372Z,99302.03
2023-06-30T12:09:05.290Z,99300.22
2023-06-30T12:11:33.349Z,99284.47
2023-06-30T12:14:08.493Z,99280.13
2023-06-30T12:16:50.238Z,99290.78
2023-06-30T12:19:25.601Z,99278.47
2023-06-30T12:21:58.508Z,99264.75
2023-06-30T12:24:33.417Z,99265.31
2023-06-30T12:27:06.725Z,99266.88
2023-06-30T12:29:36.918Z,99262.72
2023-06-30T12:32:18.349Z,99267.00
2023-06-30T12:34:47.507Z,99269.06
2023-06-30T12:37:20.378Z,99263.84
2023-06-30T12:39:48.362Z,99256.41
2023-06-30T12:42:19.846Z,99255.06
2023-06-30T12:44:48.062Z,99249.34
2023-06-30T12:47:16.181Z,99254.84
2023-06-30T12:49:44.239Z,99250.56
2023-06-30T12:52:12.562Z,99244.94
2023-06-30T12:54:40.887Z,99242.28
2023-06-30T12:57:09.256Z,99234.31
2023-06-30T12:59:38.716Z,99240.06
2023-06-30T13:02:07.893Z,99234.34
2023-06-30T13:04:36.845Z,99224.84
2023-06-30T13:07:05.034Z,99224.72
2023-06-30T13:09:33.080Z,99225.97
2023-06-30T13:12:01.318Z,99222.19
2023-06-30T13:14:29.685Z,99232.22
2023-06-30T13:16:57.581Z,99225.06
2023-06-30T13:19:26.218Z,99222.69
2023-06-30T13:21:54.804Z,99214.72
2023-06-30T13:24:22.719Z,99212.97
2023-06-30T13:26:50.488Z,99221.75
2023-06-30T13:29:18.968Z,99213.13
2023-06-30T13:31:46.980Z,99212.59
2023-06-30T13:34:14.845Z,99210.38
2023-06-30T13:36:43.225Z,99208.69
2023-06-30T13:39:11.221Z,99200.13
2023-06-30T13:41:39.051Z,99206.41
2023-06-30T13:44:06.909Z,99199.28
2023-06-30T13:46:34.783Z,99195.72
2023-06-30T13:49:02.793Z,99199.59
2023-06-30T13:51:30.765Z,99196.97
2023-06-30T13:53:58.520Z,99198.81
2023-06-30T13:56:26.281Z,99187.41
2023-06-30T13:58:54.161Z,99178.59
2023-06-30T14:01:22.026Z,99181.03
2023-06-30T14:03:51.953Z,99175.84
2023-06-30T14:06:20.350Z,99172.66
2023-06-30T14:08:49.083Z,99172.22
2023-06-30T14:11:19.256Z,99169.59
2023-06-30T14:13:47.121Z,99156.19
2023-06-30T14:16:15.446Z,99151.28
2023-06-30T14:18:43.361Z,99152.28
2023-06-30T14:21:11.117Z,99150.69
2023-06-30T14:23:39.101Z,99149.91
2023-06-30T14:26:06.924Z,99147.34
2023-06-30T14:28:35.746Z,99136.97
2023-06-30T14:31:03.630Z,99140.31
2023-06-30T14:33:31.568Z,99134.28
2023-06-30T14:36:00.081Z,99133.91
2023-06-30T14:38:27.986Z,99130.91
2023-06-30T14:40:56.056Z,99132.41
2023-06-30T14:43:25.279Z,99134.56
2023-06-30T14:46:13.101Z,99129.06
2023-06-30T14:48:41.450Z,99122.84
2023-06-30T14:51:10.528Z,99121.53
2023-06-30T14:53:38.549Z,99126.78
2023-06-30T14:56:07.337Z,99126.06
2023-06-30T14:58:35.249Z,99124.53
2023-06-30T15:01:03.384Z,99120.41
2023-06-30T15:03:31.363Z,99109.53
2023-06-30T15:05:59.507Z,99106.16
2023-06-30T15:08:27.321Z,99109.03
2023-06-30T15:10:55.290Z,99118.75
2023-06-30T15:13:23.253Z,99119.69
2023-06-30T15:15:50.984Z,99114.28
2023-06-30T15:18:18.894Z,99109.91
2023-06-30T15:20:46.745Z,99100.03
2023-06-30T15:23:14.868Z,99098.41
2023-06-30T15:25:42.805Z,99092.47
2023-06-30T15:28:11.000Z,99103.22
2023-06-30T15:30:38.921Z,99096.19
2023-06-30T15:33:10.031Z,99101.53
2023-06-30T15:35:39.310Z,99093.41
2023-06-30T15:38:07.931Z,99092.84
2023-06-30T15:40:36.649Z,99090.31
2023-06-30T15:43:05.175Z,99090.63
2023-06-30T15:45:35.118Z,99092.66
2023-06-30T15:48:03.334Z,99074.25
2023-06-30T15:50:33.036Z,99079.06
2023-06-30T15:53:01.121Z,99075.34
2023-06-30T15:55:29.497Z,99084.53
2023-06-30T15:57:58.740Z,99079.59
2023-06-30T16:00:26.751Z,99071.28
2023-06-30T16:02:56.137Z,99081.81
2023-06-30T16:05:24.479Z,99075.78
2023-06-30T16:07:54.287Z,99068.56
2023-06-30T16:10:22.320Z,99076.69
2023-06-30T16:12:50.318Z,99071.84
2023-06-30T16:15:18.255Z,99077.75
2023-06-30T16:17:48.884Z,99076.22
2023-06-30T16:20:16.997Z,99069.31
2023-06-30T16:22:46.914Z,99069.75
2023-06-30T16:25:16.869Z,99075.16
2023-06-30T16:27:44.789Z,99070.38
2023-06-30T16:30:44.354Z,99067.06
2023-06-30T16:33:12.860Z,99069.84
2023-06-30T16:35:41.750Z,99064.66
2023-06-30T16:38:11.037Z,99072.63
2023-06-30T16:40:39.071Z,99066.00
2023-06-30T16:43:06.934Z,99069.41
2023-06-30T16:45:36.767Z,99067.91
2023-06-30T16:48:05.719Z,99066.75
2023-06-30T16:50:33.857Z,99062.94
2023-06-30T16:53:01.776Z,99054.13
2023-06-30T16:55:29.845Z,99057.41
2023-06-30T16:57:57.663Z,99058.63
2023-06-30T17:00:25.884Z,99063.63
2023-06-30T17:02:53.845Z,99059.19
2023-06-30T17:05:23.060Z,99061.25
2023-06-30T17:07:53.005Z,99059.88
2023-06-30T17:10:20.870Z,99050.97
2023-06-30T17:12:52.424Z,99052.72
2023-06-30T17:15:20.386Z,99049.84
2023-06-30T17:17:50.513Z,99054.75
2023-06-30T17:20:18.791Z,99052.63
2023-06-30T17:22:46.692Z,99051.66
2023-06-30T17:25:14.766Z,99055.22
2023-06-30T17:27:43.142Z,99050.91
2023-06-30T17:30:12.245Z,99044.88
2023-06-30T17:32:40.911Z,99043.50
2023-06-30T17:35:10.537Z,99042.72
2023-06-30T17:37:39.470Z,99040.56
2023-06-30T17:40:08.560Z,99039.06
2023-06-30T17:42:36.460Z,99047.56
2023-06-30T17:45:08.296Z,99047.16
2023-06-30T17:47:37.706Z,99051.16
2023-06-30T17:50:06.098Z,99051.13
2023-06-30T17:52:34.369Z,99051.88
2023-06-30T17:55:02.227Z,99053.44
2023-06-30T17:57:29.921Z,99054.00
2023-06-30T17:59:57.541Z,99050.47
2023-06-30T18:02:25.373Z,99049.69
2023-06-30T18:04:54.250Z,99053.00
2023-06-30T18:07:22.257Z,99048.88
2023-06-30T18:09:49.867Z,99051.56
2023-06-30T18:12:17.587Z,99047.34
2023-06-30T18:14:45.380Z,99042.38
2023-06-30T18:17:14.889Z,99049.63
2023-06-30T18:19:42.769Z,99048.88
2023-06-30T18:22:10.673Z,99045.72
2023-06-30T18:24:39.670Z,99044.44
2023-06-30T18:27:07.388Z,99050.31
2023-06-30T18:29:35.057Z,99055.38
2023-06-30T18:32:03.136Z,99056.66
2023-06-30T18:34:31.240Z,99050.63
2023-06-30T18:36:58.882Z,99053.63
2023-06-30T18:39:26.555Z,99054.88
2023-06-30T18:41:56.036Z,99064.00
2023-06-30T18:44:25.151Z,99057.44
2023-06-30T18:46:53.264Z,99059.09
2023-06-30T18:49:23.595Z,99056.78
2023-06-30T18:51:53.214Z,99062.38
2023-06-30T18:54:20.848Z,99057.47
2023-06-30T18:56:48.897Z,99063.25
2023-06-30T18:59:16.721Z,99073.47
2023-06-30T19:01:44.825Z,99069.13
2023-06-30T19:04:12.727Z,99066.41
2023-06-30T19:06:42.143Z,99064.44
2023-06-30T19:09:10.050Z,99061.50
2023-06-30T19:11:37.793Z,99065.97
2023-06-30T19:14:06.790Z,99072.91
2023-06-30T19:16:34.485Z,99070.44
2023-06-30T19:19:02.156Z,99064.91
2023-06-30T19:21:34.502Z,99064.06
2023-06-30T19:24:02.941Z,99073.19
2023-06-30T19:26:30.712Z,99071.38
2023-06-30T19:28:58.799Z,99070.53
2023-06-30T19:31:27.545Z,99077.47
2023-06-30T19:33:55.380Z,99078.28
2023-06-30T19:36:24.629Z,99082.31
2023-06-30T19:38:52.269Z,99076.78
2023-06-30T19:41:20.958Z,99082.34
2023-06-30T19:43:49.242Z,99074.78
2023-06-30T19:46:16.959Z,99074.63
2023-06-30T19:48:46.869Z,99079.28
2023-06-30T19:51:16.563Z,99070.50
2023-06-30T19:53:46.178Z,99072.91
2023-06-30T19:56:34.233Z,99070.31
2023-06-30T19:59:03.302Z,99070.03
2023-06-30T20:01:33.235Z,99077.00
2023-06-30T20:04:02.036Z,99071.22
2023-06-30T20:06:30.337Z,99077.41
2023-06-30T20:08:58.874Z,99078.59
2023-06-30T20:11:26.897Z,99080.94
2023-06-30T20:13:54.936Z,99083.63
2023-06-30T20:16:23.474Z,99087.00
2023-06-30T20:18:52.800Z,99084.78
2023-06-30T20:21:20.572Z,99078.78
2023-06-30T20:23:48.358Z,99079.59
2023-06-30T20:28:55.606Z,99081.19
2023-06-30T20:31:24.802Z,99076.59
2023-06-30T20:33:53.174Z,99080.44
2023-06-30T20:36:22.409Z,99074.88
2023-06-30T20:38:50.341Z,99083.25
2023-06-30T20:41:18.060Z,99085.22
2023-06-30T20:43:46.286Z,99080.69
2023-06-30T20:46:13.931Z,99082.19
2023-06-30T20:48:41.653Z,99082.53
2023-06-30T20:51:09.613Z,99091.75
2023-06-30T20:53:38.133Z,99092.88
2023-06-30T20:56:09.184Z,99096.00
2023-06-30T20:58:38.391Z,99091.78
2023-06-30T21:01:06.507Z,99091.38
2023-06-30T21:03:35.206Z,99092.19
2023-06-30T21:06:03.411Z,99083.69
2023-06-30T21:08:34.242Z,99082.59
2023-06-30T21:11:02.424Z,99092.56
2023-06-30T21:13:32.226Z,99092.97
2023-06-30T21:16:00.431Z,99088.44
2023-06-30T21:18:28.513Z,99089.91
2023-06-30T21:20:56.428Z,99095.22
2023-06-30T21:23:24.440Z,99091.09
2023-06-30T21:25:53.996Z,99084.63
2023-06-30T21:28:21.967Z,99080.47
2023-06-30T21:30:50.013Z,99084.66
2023-06-30T21:33:19.756Z,99089.66
2023-06-30T21:35:48.021Z,99085.81
2023-06-30T21:38:15.983Z,99087.38
2023-06-30T21:40:44.136Z,99091.88
2023-06-30T21:43:12.282Z,99080.81
2023-06-30T21:45:40.209Z,99081.25
2023-06-30T21:48:10.377Z,99077.81
2023-06-30T21:50:41.090Z,99082.47
2023-06-30T21:53:09.221Z,99068.41
2023-06-30T21:55:37.247Z,99078.25
2023-06-30T21:58:14.726Z,99080.59
2023-06-30T22:00:51.325Z,99073.75
2023-06-30T22:03:19.931Z,99077.53
2023-06-30T22:05:48.031Z,99075.63
2023-06-30T22:08:16.036Z,99079.13
2023-06-30T22:10:44.224Z,99072.28
2023-06-30T22:13:12.603Z,99073.38
2023-06-30T22:15:41.566Z,99075.28
2023-06-30T22:18:09.922Z,99076.44
2023-06-30T22:20:37.767Z,99087.09
2023-06-30T22:23:05.707Z,99090.97
2023-06-30T22:25:33.760Z,99089.84
2023-06-30T22:28:01.846Z,99091.03
2023-06-30T22:30:29.894Z,99097.53
2023-06-30T22:32:58.416Z,99090.28
2023-06-30T22:35:26.513Z,99093.34
2023-06-30T22:37:54.577Z,99088.00
2023-06-30T22:40:22.901Z,99093.34
2023-06-30T22:42:50.823Z,99098.72
2023-06-30T22:45:18.726Z,99097.63
2023-06-30T22:47:46.805Z,99096.41
2023-06-30T22:50:14.971Z,99102.19
2023-06-30T22:52:43.048Z,99110.97
2023-06-30T22:55:11.627Z,99109.09
2023-06-30T22:57:39.691Z,99110.97
2023-06-30T23:00:09.160Z,99115.56
2023-06-30T23:02:37.197Z,99104.50
2023-06-30T23:05:06.981Z,99099.94
2023-06-30T23:07:35.090Z,99106.44
2023-06-30T23:10:03.319Z,99101.09
2023-06-30T23:12:31.587Z,99095.00
2023-06-30T23:15:02.202Z,99106.03
2023-06-30T23:17:30.313Z,99099.56
2023-06-30T23:19:58.314Z,99094.25
2023-06-30T23:22:27.262Z,99090.03
2023-06-30T23:24:55.261Z,99094.22
2023-06-30T23:27:28.701Z,99089.97
2023-06-30T23:29:58.180Z,99091.91
2023-06-30T23:32:26.281Z,99094.16
2023-06-30T23:34:54.494Z,99101.03
2023-06-30T23:37:22.623Z,99106.31
2023-06-30T23:39:51.715Z,99101.69
2023-06-30T23:42:20.189Z,99097.31
2023-06-30T23:44:48.462Z,99103.38
2023-06-30T23:47:18.740Z,99105.53
2023-06-30T23:49:48.542Z,99101.28
2023-06-30T23:52:17.587Z,99108.44
2023-06-30T23:54:45.659Z,99118.31
2023-06-30T23:57:13.586Z,99108.75
2023-06-30T23:59:41.790Z,99105.47
